createdAt,value
2023-01-09T00:01:49.423Z,8.92
2023-01-09T00:04:12.684Z,8.88
2023-01-09T00:06:35.440Z,8.97
2023-01-09T00:08:58.028Z,8.91
2023-01-09T00:11:21.047Z,8.83
2023-01-09T00:13:43.654Z,8.97
2023-01-09T00:16:08.399Z,8.97
2023-01-09T00:18:31.091Z,8.92
2023-01-09T00:20:53.731Z,9.00
2023-01-09T00:23:16.256Z,9.07
2023-01-09T00:25:40.013Z,9.07
2023-01-09T00:28:03.908Z,9.04
2023-01-09T00:30:27.348Z,9.08
2023-01-09T00:32:49.991Z,9.08
2023-01-09T00:35:16.780Z,9.17
2023-01-09T00:37:39.490Z,9.24
2023-01-09T00:40:02.334Z,9.29
2023-01-09T00:42:28.346Z,9.28
2023-01-09T00:45:14.490Z,9.21
2023-01-09T00:47:43.139Z,9.27
2023-01-09T00:50:10.303Z,9.39
2023-01-09T00:52:36.017Z,9.36
2023-01-09T00:54:59.718Z,9.29
2023-01-09T00:57:22.398Z,9.19
2023-01-09T00:59:45.138Z,9.21
2023-01-09T01:02:08.034Z,9.15
2023-01-09T01:04:49.294Z,8.98
2023-01-09T01:07:30.418Z,8.98
2023-01-09T01:09:53.134Z,8.98
2023-01-09T01:12:15.761Z,8.97
2023-01-09T01:14:39.616Z,8.91
2023-01-09T01:17:03.029Z,8.97
2023-01-09T01:19:25.654Z,9.01
2023-01-09T01:21:48.223Z,9.11
2023-01-09T01:24:11.036Z,9.08
2023-01-09T01:26:33.601Z,9.04
2023-01-09T01:28:56.263Z,9.03
2023-01-09T01:31:19.816Z,9.14
2023-01-09T01:33:42.558Z,9.14
2023-01-09T01:36:08.282Z,9.07
2023-01-09T01:38:31.727Z,9.12
2023-01-09T01:40:55.233Z,9.14
2023-01-09T01:43:17.782Z,9.18
2023-01-09T01:45:40.889Z,9.24
2023-01-09T01:48:14.137Z,9.24
2023-01-09T01:50:48.682Z,9.31
2023-01-09T01:53:19.088Z,9.34
2023-01-09T01:55:47.200Z,9.39
2023-01-09T01:58:13.459Z,9.40
2023-01-09T02:00:40.452Z,9.39
2023-01-09T02:03:03.308Z,9.49
2023-01-09T02:05:25.993Z,9.49
2023-01-09T02:07:48.615Z,9.55
2023-01-09T02:10:11.299Z,9.59
2023-01-09T02:12:33.917Z,9.59
2023-01-09T02:15:01.022Z,9.43
2023-01-09T02:17:37.503Z,9.34
2023-01-09T02:20:27.687Z,9.22
2023-01-09T02:22:56.039Z,9.18
2023-01-09T02:25:43.301Z,9.11
2023-01-09T02:28:24.448Z,9.12
2023-01-09T02:30:54.711Z,9.07
2023-01-09T02:33:52.033Z,9.10
2023-01-09T02:36:14.703Z,9.05
2023-01-09T02:38:46.292Z,9.01
2023-01-09T02:41:23.090Z,9.03
2023-01-09T02:43:45.737Z,8.88
2023-01-09T02:46:22.919Z,8.90
2023-01-09T02:48:46.612Z,8.80
2023-01-09T02:51:26.485Z,8.77
2023-01-09T02:54:04.261Z,8.74
2023-01-09T02:56:45.482Z,8.77
2023-01-09T02:59:21.296Z,8.74
2023-01-09T03:02:01.991Z,8.73
2023-01-09T03:04:30.526Z,8.69
2023-01-09T03:07:13.118Z,8.69
2023-01-09T03:09:40.024Z,8.60
2023-01-09T03:12:14.436Z,8.67
2023-01-09T03:14:41.817Z,8.63
2023-01-09T03:17:07.923Z,8.69
2023-01-09T03:19:32.229Z,8.64
2023-01-09T03:21:56.020Z,8.69
2023-01-09T03:24:18.678Z,8.69
2023-01-09T03:26:41.571Z,8.59
2023-01-09T03:29:04.771Z,8.56
2023-01-09T03:31:27.810Z,8.57
2023-01-09T03:33:51.064Z,8.56
2023-01-09T03:36:14.832Z,8.50
2023-01-09T03:38:37.457Z,8.48
2023-01-09T03:41:01.160Z,8.50
2023-01-09T03:43:23.868Z,8.52
2023-01-09T03:45:46.571Z,8.46
2023-01-09T03:48:09.363Z,8.53
2023-01-09T03:50:32.074Z,8.43
2023-01-09T03:52:55.778Z,8.54
2023-01-09T03:55:18.567Z,8.54
2023-01-09T03:57:41.282Z,8.45
2023-01-09T04:00:04.582Z,8.54
2023-01-09T04:02:35.156Z,8.59
2023-01-09T04:04:57.703Z,8.66
2023-01-09T04:07:20.276Z,8.57
2023-01-09T04:09:43.169Z,8.71
2023-01-09T04:12:06.137Z,8.74
2023-01-09T04:14:28.749Z,8.62
2023-01-09T04:16:51.494Z,8.59
2023-01-09T04:19:14.363Z,8.59
2023-01-09T04:21:37.173Z,8.67
2023-01-09T04:23:59.979Z,8.59
2023-01-09T04:26:22.556Z,8.56
2023-01-09T04:28:45.537Z,8.57
2023-01-09T04:31:08.062Z,8.66
2023-01-09T04:33:31.019Z,8.73
2023-01-09T04:35:53.645Z,8.66
2023-01-09T04:38:16.468Z,8.62
2023-01-09T04:40:39.357Z,8.66
2023-01-09T04:43:01.972Z,8.60
2023-01-09T04:45:24.588Z,8.53
2023-01-09T04:47:47.969Z,8.46
2023-01-09T04:50:12.465Z,8.50
2023-01-09T04:52:35.229Z,8.42
2023-01-09T04:54:58.500Z,8.45
2023-01-09T04:57:21.411Z,8.39
2023-01-09T04:59:44.049Z,8.29
2023-01-09T05:02:07.039Z,8.25
2023-01-09T05:04:30.373Z,8.22
2023-01-09T05:06:53.119Z,8.25
2023-01-09T05:09:15.855Z,8.15
2023-01-09T05:11:38.521Z,8.16
2023-01-09T05:14:01.172Z,8.15
2023-01-09T05:16:23.830Z,8.16
2023-01-09T05:18:46.495Z,8.16
2023-01-09T05:21:09.160Z,8.18
2023-01-09T05:23:32.041Z,8.18
2023-01-09T05:25:54.714Z,8.21
2023-01-09T05:28:17.284Z,8.16
2023-01-09T05:30:39.989Z,8.08
2023-01-09T05:33:02.552Z,8.06
2023-01-09T05:35:25.135Z,8.04
2023-01-09T05:37:47.669Z,8.05
2023-01-09T05:40:11.035Z,8.02
2023-01-09T05:42:33.648Z,7.98
2023-01-09T05:44:56.594Z,8.06
2023-01-09T05:47:19.209Z,8.11
2023-01-09T05:49:42.037Z,8.08
2023-01-09T05:52:05.253Z,8.15
2023-01-09T05:54:27.920Z,8.04
2023-01-09T05:56:50.428Z,7.99
2023-01-09T05:59:13.268Z,8.01
2023-01-09T06:01:36.076Z,7.93
2023-01-09T06:03:58.762Z,7.95
2023-01-09T06:06:21.353Z,7.94
2023-01-09T06:08:43.966Z,7.95
2023-01-09T06:11:06.551Z,7.98
2023-01-09T06:13:29.150Z,8.12
2023-01-09T06:15:51.855Z,8.16
2023-01-09T06:18:14.871Z,8.28
2023-01-09T06:20:37.522Z,8.06
2023-01-09T06:23:00.185Z,8.08
2023-01-09T06:25:23.263Z,8.05
2023-01-09T06:27:47.743Z,8.09
2023-01-09T06:30:11.077Z,8.09
2023-01-09T06:32:33.763Z,8.26
2023-01-09T06:34:56.457Z,8.21
2023-01-09T06:37:19.246Z,8.20
2023-01-09T06:39:41.998Z,8.14
2023-01-09T06:42:04.804Z,8.04
2023-01-09T06:44:27.551Z,8.06
2023-01-09T06:46:53.869Z,7.99
2023-01-09T06:49:23.516Z,8.01
2023-01-09T06:51:46.368Z,8.02
2023-01-09T06:54:09.268Z,7.97
2023-01-09T06:56:36.001Z,7.90
2023-01-09T06:58:58.701Z,7.94
2023-01-09T07:01:21.604Z,7.97
2023-01-09T07:03:45.117Z,7.83
2023-01-09T07:06:09.662Z,7.83
2023-01-09T07:08:34.522Z,7.83
2023-01-09T07:10:59.667Z,7.83
2023-01-09T07:13:22.932Z,7.88
2023-01-09T07:15:46.245Z,7.83
2023-01-09T07:18:09.447Z,7.80
2023-01-09T07:20:32.302Z,7.74
2023-01-09T07:22:55.447Z,7.73
2023-01-09T07:25:18.248Z,7.76
2023-01-09T07:27:41.239Z,7.78
2023-01-09T07:30:05.898Z,7.67
2023-01-09T07:32:28.652Z,7.78
2023-01-09T07:34:51.779Z,7.77
2023-01-09T07:37:14.685Z,7.78
2023-01-09T07:39:37.827Z,7.77
2023-01-09T07:42:00.502Z,7.76
2023-01-09T07:44:23.787Z,7.78
2023-01-09T07:46:46.435Z,7.87
2023-01-09T07:49:09.422Z,7.77
2023-01-09T07:51:32.382Z,7.70
2023-01-09T07:53:55.107Z,7.60
2023-01-09T07:56:17.998Z,7.49
2023-01-09T07:58:41.759Z,7.32
2023-01-09T08:01:05.379Z,7.26
2023-01-09T08:03:28.537Z,7.25
2023-01-09T08:05:51.758Z,7.28
2023-01-09T08:08:15.262Z,7.26
2023-01-09T08:10:37.935Z,7.32
2023-01-09T08:13:00.604Z,7.25
2023-01-09T08:15:23.223Z,7.18
2023-01-09T08:17:47.085Z,7.26
2023-01-09T08:20:12.279Z,7.20
2023-01-09T08:22:35.044Z,7.37
2023-01-09T08:24:57.798Z,7.37
2023-01-09T08:27:20.508Z,7.42
2023-01-09T08:29:44.107Z,7.29
2023-01-09T08:32:07.014Z,7.18
2023-01-09T08:34:30.568Z,7.16
2023-01-09T08:36:54.212Z,7.29
2023-01-09T08:39:17.068Z,7.09
2023-01-09T08:41:58.113Z,7.08
2023-01-09T08:45:00.385Z,6.97
2023-01-09T08:47:24.864Z,7.02
2023-01-09T08:49:47.615Z,7.02
2023-01-09T08:52:10.717Z,7.07
2023-01-09T08:54:34.162Z,7.01
2023-01-09T08:56:57.286Z,7.05
2023-01-09T08:59:20.160Z,6.94
2023-01-09T09:01:43.480Z,6.88
2023-01-09T09:04:06.470Z,6.94
2023-01-09T09:06:29.141Z,6.88
2023-01-09T09:08:51.818Z,6.91
2023-01-09T09:11:14.855Z,6.80
2023-01-09T09:13:37.715Z,6.87
2023-01-09T09:16:00.507Z,6.85
2023-01-09T09:18:23.311Z,6.76
2023-01-09T09:20:46.107Z,6.80
2023-01-09T09:23:08.833Z,6.71
2023-01-09T09:25:31.692Z,6.78
2023-01-09T09:27:56.432Z,6.80
2023-01-09T09:30:20.902Z,6.74
2023-01-09T09:32:43.570Z,6.76
2023-01-09T09:35:06.995Z,6.70
2023-01-09T09:37:29.611Z,6.66
2023-01-09T09:39:53.105Z,6.77
2023-01-09T09:42:46.571Z,6.74
2023-01-09T09:45:43.165Z,6.63
2023-01-09T09:48:41.473Z,6.76
2023-01-09T09:51:36.410Z,6.66
2023-01-09T09:54:22.691Z,6.71
2023-01-09T09:56:53.310Z,6.58
2023-01-09T09:59:20.377Z,6.73
2023-01-09T10:01:51.659Z,6.85
2023-01-09T10:04:18.690Z,6.97
2023-01-09T10:06:44.949Z,6.80
2023-01-09T10:09:17.038Z,6.70
2023-01-09T10:11:52.786Z,6.61
2023-01-09T10:14:23.540Z,6.69
2023-01-09T10:17:06.298Z,6.60
2023-01-09T10:19:44.428Z,6.73
2023-01-09T10:22:19.305Z,6.77
2023-01-09T10:25:06.868Z,6.99
2023-01-09T10:27:54.509Z,7.11
2023-01-09T10:30:46.125Z,7.01
2023-01-09T10:33:45.759Z,6.85
2023-01-09T10:36:26.573Z,6.85
2023-01-09T10:38:53.205Z,6.97
2023-01-09T10:41:29.108Z,7.18
2023-01-09T10:44:19.407Z,7.30
2023-01-09T10:46:49.153Z,7.49
2023-01-09T10:49:18.849Z,7.32
2023-01-09T10:51:48.134Z,7.02
2023-01-09T10:54:16.381Z,6.92
2023-01-09T10:56:45.307Z,6.85
2023-01-09T10:59:09.742Z,6.77
2023-01-09T11:01:37.668Z,6.73
2023-01-09T11:04:02.336Z,6.66
2023-01-09T11:06:32.748Z,6.73
2023-01-09T11:08:59.184Z,6.77
2023-01-09T11:11:43.101Z,6.81
2023-01-09T11:14:31.622Z,6.77
2023-01-09T11:16:56.920Z,6.95
2023-01-09T11:19:20.114Z,6.81
2023-01-09T11:21:43.131Z,6.78
2023-01-09T11:24:21.474Z,6.83
2023-01-09T11:26:47.405Z,6.83
2023-01-09T11:29:21.216Z,6.84
2023-01-09T11:31:53.461Z,6.90
2023-01-09T11:34:22.028Z,6.87
2023-01-09T11:36:45.673Z,6.85
2023-01-09T11:39:25.736Z,6.87
2023-01-09T11:41:53.645Z,6.94
2023-01-09T11:44:16.463Z,7.07
2023-01-09T11:46:44.100Z,7.05
2023-01-09T11:49:12.983Z,7.07
2023-01-09T11:51:36.990Z,7.05
2023-01-09T11:54:24.534Z,6.94
2023-01-09T11:56:48.616Z,6.99
2023-01-09T11:59:14.457Z,6.98
2023-01-09T12:01:37.202Z,7.18
2023-01-09T12:04:17.817Z,7.26
2023-01-09T12:06:59.119Z,7.18
2023-01-09T12:09:52.870Z,7.26
2023-01-09T12:12:35.426Z,7.28
2023-01-09T12:15:16.084Z,7.29
2023-01-09T12:18:05.555Z,7.15
2023-01-09T12:20:38.451Z,7.32
2023-01-09T12:23:23.353Z,7.36
2023-01-09T12:26:06.265Z,7.32
2023-01-09T12:28:35.502Z,7.23
2023-01-09T12:31:26.241Z,7.20
2023-01-09T12:33:57.615Z,7.35
2023-01-09T12:36:37.323Z,7.56
2023-01-09T12:39:09.498Z,7.70
2023-01-09T12:41:38.130Z,7.85
2023-01-09T12:44:39.212Z,7.78
2023-01-09T12:47:23.676Z,7.74
2023-01-09T12:50:21.204Z,7.49
2023-01-09T12:52:57.039Z,7.37
2023-01-09T12:55:23.995Z,7.19
2023-01-09T12:57:51.162Z,7.11
2023-01-09T13:00:23.822Z,7.02
2023-01-09T13:03:03.646Z,7.01
2023-01-09T13:05:37.631Z,7.08
2023-01-09T13:08:08.568Z,7.08
2023-01-09T13:10:42.160Z,7.12
2023-01-09T13:13:38.459Z,7.22
2023-01-09T13:16:05.622Z,7.29
2023-01-09T13:19:12.160Z,7.28
2023-01-09T13:21:35.509Z,7.50
2023-01-09T13:24:11.037Z,7.45
2023-01-09T13:26:45.644Z,7.52
2023-01-09T13:29:26.698Z,7.42
2023-01-09T13:32:08.528Z,7.55
2023-01-09T13:34:34.128Z,7.56
2023-01-09T13:36:58.799Z,7.63
2023-01-09T13:39:40.419Z,7.73
2023-01-09T13:42:25.449Z,7.84
2023-01-09T13:44:51.189Z,7.88
2023-01-09T13:47:22.932Z,7.95
2023-01-09T13:49:45.499Z,7.81
2023-01-09T13:52:36.802Z,7.78
2023-01-09T13:55:24.402Z,7.94
2023-01-09T13:58:05.753Z,8.05
2023-01-09T14:00:28.384Z,8.18
2023-01-09T14:02:56.614Z,8.24
2023-01-09T14:05:25.032Z,7.98
2023-01-09T14:07:49.989Z,8.01
2023-01-09T14:10:25.871Z,7.77
2023-01-09T14:12:49.464Z,7.56
2023-01-09T14:15:26.983Z,7.81
2023-01-09T14:18:15.178Z,7.56
2023-01-09T14:20:41.646Z,7.77
2023-01-09T14:23:28.006Z,7.63
2023-01-09T14:25:48.222Z,7.59
2023-01-09T14:28:22.975Z,7.40
2023-01-09T14:30:54.379Z,7.47
2023-01-09T14:33:20.213Z,7.37
2023-01-09T14:35:54.632Z,7.29
2023-01-09T14:38:37.755Z,7.39
2023-01-09T14:41:21.199Z,7.35
2023-01-09T14:44:06.553Z,7.25
2023-01-09T14:46:37.763Z,7.16
2023-01-09T14:49:07.459Z,7.16
2023-01-09T14:51:35.599Z,7.14
2023-01-09T14:54:01.660Z,7.25
2023-01-09T14:56:28.715Z,7.26
2023-01-09T14:59:12.805Z,7.32
2023-01-09T15:01:36.440Z,7.36
2023-01-09T15:04:03.012Z,7.36
2023-01-09T15:06:29.151Z,7.43
2023-01-09T15:09:24.573Z,7.62
2023-01-09T15:11:47.655Z,7.62
2023-01-09T15:14:33.069Z,7.67
2023-01-09T15:16:56.079Z,7.70
2023-01-09T15:19:19.721Z,7.73
2023-01-09T15:21:56.768Z,7.85
2023-01-09T15:24:22.858Z,7.93
2023-01-09T15:26:53.216Z,7.87
2023-01-09T15:29:20.607Z,7.83
2023-01-09T15:31:45.530Z,7.93
2023-01-09T15:34:17.453Z,7.97
2023-01-09T15:36:40.357Z,7.91
2023-01-09T15:39:06.763Z,7.81
2023-01-09T15:41:49.331Z,7.81
2023-01-09T15:44:21.094Z,7.83
2023-01-09T15:46:46.519Z,7.85
2023-01-09T15:49:12.372Z,7.78
2023-01-09T15:51:35.266Z,7.73
2023-01-09T15:54:00.783Z,7.76
2023-01-09T15:56:25.690Z,7.77
2023-01-09T15:58:52.790Z,7.74
2023-01-09T16:01:35.321Z,7.78
2023-01-09T16:04:18.265Z,7.71
2023-01-09T16:06:49.294Z,7.74
2023-01-09T16:09:41.908Z,7.76
2023-01-09T16:12:04.875Z,7.87
2023-01-09T16:14:38.591Z,7.56
2023-01-09T16:17:07.760Z,7.52
2023-01-09T16:19:47.120Z,7.40
2023-01-09T16:22:31.394Z,7.43
2023-01-09T16:24:57.441Z,7.47
2023-01-09T16:27:27.308Z,7.66
2023-01-09T16:29:57.410Z,7.67
2023-01-09T16:32:24.334Z,7.69
2023-01-09T16:34:52.241Z,7.64
2023-01-09T16:37:14.849Z,7.78
2023-01-09T16:39:38.812Z,7.91
2023-01-09T16:42:20.412Z,7.81
2023-01-09T16:44:43.166Z,7.76
2023-01-09T16:47:05.887Z,7.74
2023-01-09T16:49:29.032Z,7.56
2023-01-09T16:51:51.913Z,7.43
2023-01-09T16:54:15.288Z,7.47
2023-01-09T16:56:39.376Z,7.40
2023-01-09T16:59:02.013Z,7.36
2023-01-09T17:01:25.546Z,7.30
2023-01-09T17:03:48.492Z,7.26
2023-01-09T17:06:31.493Z,7.47
2023-01-09T17:08:54.354Z,7.49
2023-01-09T17:11:31.599Z,7.46
2023-01-09T17:13:54.422Z,7.40
2023-01-09T17:16:18.454Z,7.29
2023-01-09T17:18:41.670Z,7.22
2023-01-09T17:21:04.334Z,7.33
2023-01-09T17:23:27.118Z,7.43
2023-01-09T17:26:11.609Z,7.43
2023-01-09T17:28:35.928Z,7.30
2023-01-09T17:31:10.585Z,7.50
2023-01-09T17:33:33.781Z,7.46
2023-01-09T17:35:56.840Z,7.45
2023-01-09T17:38:19.927Z,7.46
2023-01-09T17:40:43.717Z,7.30
2023-01-09T17:43:06.351Z,7.33
2023-01-09T17:45:29.042Z,7.28
2023-01-09T17:47:52.119Z,7.32
2023-01-09T17:50:19.721Z,7.28
2023-01-09T17:52:42.336Z,7.29
2023-01-09T17:55:05.525Z,7.35
2023-01-09T17:57:28.305Z,7.43
2023-01-09T17:59:50.969Z,7.56
2023-01-09T18:02:18.059Z,7.55
2023-01-09T18:04:40.639Z,7.59
2023-01-09T18:07:03.197Z,7.43
2023-01-09T18:09:25.870Z,7.40
2023-01-09T18:11:48.747Z,7.49
2023-01-09T18:14:13.683Z,7.47
2023-01-09T18:16:37.455Z,7.35
2023-01-09T18:19:01.588Z,7.23
2023-01-09T18:21:26.547Z,7.29
2023-01-09T18:23:50.222Z,7.28
2023-01-09T18:26:20.363Z,7.33
2023-01-09T18:28:42.991Z,7.40
2023-01-09T18:31:06.495Z,7.55
2023-01-09T18:33:29.100Z,7.47
2023-01-09T18:35:52.337Z,7.47
2023-01-09T18:38:16.517Z,7.33
2023-01-09T18:40:39.431Z,7.29
2023-01-09T18:43:07.930Z,7.26
2023-01-09T18:45:31.910Z,7.15
2023-01-09T18:47:55.415Z,7.12
2023-01-09T18:50:18.140Z,7.12
2023-01-09T18:52:40.704Z,7.15
2023-01-09T18:55:03.898Z,7.14
2023-01-09T18:57:26.713Z,7.14
2023-01-09T18:59:50.101Z,7.09
2023-01-09T19:02:24.658Z,7.09
2023-01-09T19:04:47.820Z,7.11
2023-01-09T19:07:10.738Z,7.23
2023-01-09T19:09:33.588Z,7.20
2023-01-09T19:11:56.494Z,7.12
2023-01-09T19:14:19.391Z,7.16
2023-01-09T19:16:42.770Z,7.16
2023-01-09T19:19:06.670Z,7.14
2023-01-09T19:21:29.879Z,7.18
2023-01-09T19:23:52.938Z,7.22
2023-01-09T19:26:24.686Z,7.18
2023-01-09T19:28:47.967Z,7.28
2023-01-09T19:31:11.235Z,7.30
2023-01-09T19:33:34.465Z,7.35
2023-01-09T19:35:57.233Z,7.26
2023-01-09T19:38:22.642Z,7.22
2023-01-09T19:40:45.166Z,7.25
2023-01-09T19:43:07.950Z,7.15
2023-01-09T19:45:30.564Z,7.28
2023-01-09T19:47:53.526Z,7.37
2023-01-09T19:50:17.917Z,7.46
2023-01-09T19:52:43.300Z,7.46
2023-01-09T19:55:06.362Z,7.40
2023-01-09T19:57:29.404Z,7.37
2023-01-09T19:59:52.391Z,7.22
2023-01-09T20:02:15.902Z,7.22
2023-01-09T20:04:38.814Z,7.14
2023-01-09T20:07:01.488Z,7.16
2023-01-09T20:09:27.507Z,7.09
2023-01-09T20:11:50.266Z,7.11
2023-01-09T20:14:14.333Z,7.07
2023-01-09T20:16:37.250Z,7.07
2023-01-09T20:19:07.478Z,7.05
2023-01-09T20:21:30.472Z,7.15
2023-01-09T20:23:55.174Z,7.16
2023-01-09T20:26:18.781Z,7.15
2023-01-09T20:28:41.502Z,7.19
2023-01-09T20:31:05.833Z,7.08
2023-01-09T20:33:28.583Z,7.15
2023-01-09T20:35:51.351Z,7.11
2023-01-09T20:38:14.385Z,7.02
2023-01-09T20:40:37.954Z,7.02
2023-01-09T20:43:00.593Z,7.02
2023-01-09T20:45:23.889Z,6.98
2023-01-09T20:47:46.527Z,6.94
2023-01-09T20:50:10.049Z,6.92
2023-01-09T20:52:32.712Z,7.02
2023-01-09T20:54:55.363Z,6.98
2023-01-09T20:57:18.004Z,6.94
2023-01-09T20:59:40.910Z,6.99
2023-01-09T21:02:03.489Z,6.91
2023-01-09T21:04:26.291Z,6.85
2023-01-09T21:06:50.142Z,6.92
2023-01-09T21:09:13.147Z,6.87
2023-01-09T21:11:35.669Z,6.90
2023-01-09T21:13:58.247Z,6.87
2023-01-09T21:16:24.451Z,6.87
2023-01-09T21:18:48.342Z,6.91
2023-01-09T21:21:16.958Z,6.95
2023-01-09T21:23:44.290Z,6.99
2023-01-09T21:26:11.233Z,7.02
2023-01-09T21:28:40.509Z,6.99
2023-01-09T21:31:03.349Z,7.01
2023-01-09T21:33:26.054Z,7.04
2023-01-09T21:35:53.817Z,7.02
2023-01-09T21:38:16.523Z,6.95
2023-01-09T21:40:39.187Z,7.02
2023-01-09T21:43:20.043Z,6.98
2023-01-09T21:46:01.240Z,6.91
2023-01-09T21:48:24.122Z,6.95
2023-01-09T21:50:46.696Z,6.92
2023-01-09T21:53:09.458Z,7.02
2023-01-09T21:55:32.248Z,7.01
2023-01-09T21:57:58.502Z,6.94
2023-01-09T22:00:21.352Z,7.02
2023-01-09T22:02:45.393Z,7.07
2023-01-09T22:05:08.072Z,7.11
2023-01-09T22:07:51.500Z,7.16
2023-01-09T22:10:15.078Z,7.20
2023-01-09T22:12:37.803Z,7.20
2023-01-09T22:15:00.414Z,7.22
2023-01-09T22:17:23.061Z,7.02
2023-01-09T22:19:46.017Z,6.99
2023-01-09T22:22:08.621Z,7.05
2023-01-09T22:24:31.310Z,7.14
2023-01-09T22:26:53.944Z,7.04
2023-01-09T22:29:16.584Z,7.01
2023-01-09T22:31:40.171Z,7.07
2023-01-09T22:34:02.808Z,7.08
2023-01-09T22:36:27.934Z,7.04
2023-01-09T22:38:54.178Z,7.05
2023-01-09T22:41:16.802Z,7.15
2023-01-09T22:43:39.696Z,7.09
2023-01-09T22:46:05.271Z,7.20
2023-01-09T22:48:31.657Z,7.07
2023-01-09T22:50:58.631Z,7.05
2023-01-09T22:53:21.211Z,7.15
2023-01-09T22:55:43.778Z,7.08
2023-01-09T22:58:06.431Z,7.15
2023-01-09T23:00:29.079Z,7.09
2023-01-09T23:02:51.930Z,7.23
2023-01-09T23:05:15.073Z,7.28
2023-01-09T23:07:37.698Z,7.39
2023-01-09T23:10:02.072Z,7.37
2023-01-09T23:12:24.890Z,7.29
2023-01-09T23:14:47.486Z,7.30
2023-01-09T23:17:13.096Z,7.29
2023-01-09T23:19:36.479Z,7.26
2023-01-09T23:22:17.671Z,7.22
2023-01-09T23:24:58.906Z,7.15
2023-01-09T23:27:40.581Z,7.20
2023-01-09T23:30:21.942Z,7.23
2023-01-09T23:32:45.047Z,7.29
2023-01-09T23:35:07.857Z,7.25
2023-01-09T23:37:30.537Z,7.28
2023-01-09T23:39:53.238Z,7.32
2023-01-09T23:42:34.785Z,7.36
2023-01-09T23:44:57.469Z,7.40
2023-01-09T23:47:20.249Z,7.25
2023-01-09T23:49:43.140Z,7.16
2023-01-09T23:52:06.692Z,7.25
2023-01-09T23:54:29.304Z,7.23
2023-01-09T23:56:53.447Z,7.33
2023-01-09T23:59:17.643Z,7.33
